createdAt,value
2018-05-13T09:13:32.094Z,80.60
2018-05-13T09:15:58.735Z,80.80
2018-05-13T09:18:25.410Z,82.80
2018-05-13T09:20:51.377Z,82.70
2018-05-13T09:23:17.239Z,81.50
2018-05-13T09:25:43.119Z,81.20
2018-05-13T09:28:09.046Z,80.80
2018-05-13T09:30:34.915Z,80.00
2018-05-13T09:33:00.857Z,81.20
2018-05-13T09:35:27.478Z,80.70
2018-05-13T09:37:53.382Z,80.70
2018-05-13T09:40:19.294Z,80.80
2018-05-13T09:42:45.194Z,80.50
2018-05-13T09:45:11.079Z,81.30
2018-05-13T09:47:36.966Z,82.10
2018-05-13T09:50:02.899Z,81.70
2018-05-13T09:52:28.782Z,83.00
2018-05-13T09:54:55.438Z,83.30
2018-05-13T09:57:22.069Z,83.20
2018-05-13T09:59:48.726Z,83.80
2018-05-13T10:02:14.657Z,83.80
2018-05-13T10:04:40.584Z,83.60
2018-05-13T10:07:06.492Z,83.40
2018-05-13T10:09:32.418Z,83.60
2018-05-13T10:11:58.340Z,83.10
2018-05-13T10:14:24.246Z,83.40
2018-05-13T10:16:50.184Z,83.80
2018-05-13T10:19:16.094Z,85.10
2018-05-13T10:21:42.028Z,84.40
2018-05-13T10:24:07.959Z,84.70
2018-05-13T10:26:33.886Z,84.10
2018-05-13T10:28:59.777Z,83.50
2018-05-13T10:31:25.699Z,83.50
2018-05-13T10:33:51.630Z,83.50
2018-05-13T10:36:17.515Z,83.70
2018-05-13T10:38:44.170Z,84.80
2018-05-13T10:41:10.069Z,84.80
2018-05-13T10:43:36.740Z,84.10
2018-05-13T10:46:02.675Z,84.00
2018-05-13T10:48:28.559Z,83.70
2018-05-13T10:50:54.489Z,84.60
2018-05-13T10:53:20.387Z,85.00
2018-05-13T10:55:47.076Z,84.60
2018-05-13T10:58:13.305Z,85.90
2018-05-13T11:00:39.233Z,85.00
2018-05-13T11:03:05.182Z,86.00
2018-05-13T11:05:31.079Z,85.10
2018-05-13T11:07:57.029Z,85.10
2018-05-13T11:10:23.012Z,85.20
2018-05-13T11:12:48.797Z,86.30
2018-05-13T11:15:15.486Z,85.90
2018-05-13T11:17:41.418Z,85.90
2018-05-13T11:20:07.387Z,85.50
2018-05-13T11:22:33.236Z,85.10
2018-05-13T11:24:59.125Z,85.70
2018-05-13T11:27:25.760Z,85.80
2018-05-13T11:29:52.423Z,86.10
2018-05-13T11:32:19.086Z,85.50
2018-05-13T11:34:45.024Z,85.50
2018-05-13T11:37:10.926Z,86.30
2018-05-13T11:39:36.837Z,86.60
2018-05-13T11:42:02.767Z,86.10
2018-05-13T11:44:28.659Z,86.20
2018-05-13T11:46:54.599Z,86.40
2018-05-13T11:49:20.483Z,86.50
2018-05-13T11:51:47.152Z,85.80
2018-05-13T11:54:13.807Z,86.20
2018-05-13T11:56:39.739Z,86.80
2018-05-13T11:59:05.665Z,86.90
2018-05-13T12:01:31.542Z,86.50
2018-05-13T12:03:57.489Z,86.40
2018-05-13T12:06:23.401Z,86.60
2018-05-13T12:08:49.339Z,86.60
2018-05-13T12:11:15.250Z,86.50
2018-05-13T12:13:41.149Z,87.40
2018-05-13T12:16:07.070Z,88.00
2018-05-13T12:18:33.002Z,87.00
2018-05-13T12:20:58.986Z,86.60
2018-05-13T12:23:24.830Z,85.20
2018-05-13T12:25:50.742Z,85.60
2018-05-13T12:28:16.627Z,85.40
2018-05-13T12:30:42.567Z,84.60
2018-05-13T12:33:09.186Z,84.70
2018-05-13T12:35:35.101Z,84.00
2018-05-13T12:38:01.042Z,83.80
2018-05-13T12:40:26.918Z,83.00
2018-05-13T12:42:52.846Z,81.30
2018-05-13T12:45:18.734Z,83.20
2018-05-13T12:47:44.662Z,81.90
2018-05-13T12:50:10.625Z,81.40
2018-05-13T12:52:37.216Z,83.40
2018-05-13T12:55:03.132Z,83.40
2018-05-13T12:57:29.006Z,81.60
2018-05-13T12:59:54.941Z,79.10
2018-05-13T13:02:21.612Z,78.00
2018-05-13T13:04:48.262Z,76.70
2018-05-13T13:07:14.171Z,76.70
2018-05-13T13:09:40.083Z,76.50
2018-05-13T13:12:05.999Z,74.60
2018-05-13T13:14:31.947Z,75.50
2018-05-13T13:16:57.838Z,77.30
2018-05-13T13:19:23.765Z,75.70
2018-05-13T13:21:49.643Z,76.60
2018-05-13T13:24:15.601Z,75.70
2018-05-13T13:26:41.483Z,75.50
2018-05-13T13:29:07.427Z,76.40
2018-05-13T13:31:34.060Z,77.80
2018-05-13T13:33:59.954Z,77.60
2018-05-13T13:36:25.874Z,77.60
2018-05-13T13:38:51.779Z,78.60
2018-05-13T13:41:18.543Z,79.40
2018-05-13T13:43:44.445Z,78.80
2018-05-13T13:46:10.364Z,79.30
2018-05-13T13:48:36.246Z,78.10
2018-05-13T13:51:02.153Z,77.50
2018-05-13T13:53:28.845Z,76.80
2018-05-13T13:55:55.427Z,78.00
2018-05-13T13:58:22.079Z,77.80
2018-05-13T14:00:48.738Z,79.10
2018-05-13T14:03:14.633Z,79.10
2018-05-13T14:05:41.313Z,78.80
2018-05-13T14:08:07.205Z,78.80
2018-05-13T14:10:33.093Z,79.00
2018-05-13T14:12:59.031Z,78.90
2018-05-13T14:15:25.704Z,79.00
2018-05-13T14:17:51.631Z,79.00
2018-05-13T14:20:17.572Z,79.70
2018-05-13T14:22:43.442Z,79.50
2018-05-13T14:25:09.339Z,79.80
2018-05-13T14:27:35.283Z,79.30
2018-05-13T14:30:01.177Z,79.90
2018-05-13T14:32:27.098Z,80.50
2018-05-13T14:34:52.995Z,80.50
2018-05-13T14:37:18.886Z,80.00
2018-05-13T14:39:44.891Z,80.20
2018-05-13T14:42:10.706Z,80.20
2018-05-13T14:44:37.361Z,81.40
2018-05-13T14:47:04.016Z,80.40
2018-05-13T14:49:29.979Z,80.40
2018-05-13T14:51:55.876Z,80.80
2018-05-13T14:54:21.783Z,80.70
2018-05-13T14:56:47.695Z,81.10
2018-05-13T14:59:14.355Z,80.90
2018-05-13T15:01:40.239Z,80.90
2018-05-13T15:04:06.209Z,81.40
2018-05-13T15:06:32.101Z,81.30
2018-05-13T15:08:58.015Z,80.60
2018-05-13T15:11:24.656Z,81.20
2018-05-13T15:13:50.586Z,81.20
2018-05-13T15:16:16.507Z,81.10
2018-05-13T15:18:42.390Z,80.50
2018-05-13T15:21:09.046Z,80.30
2018-05-13T15:23:34.926Z,80.30
2018-05-13T15:26:00.853Z,79.80
2018-05-13T15:28:27.509Z,80.50
2018-05-13T15:30:53.440Z,79.60
2018-05-13T15:33:19.363Z,80.40
2018-05-13T15:35:45.259Z,80.40
2018-05-13T15:38:11.934Z,80.50
2018-05-13T15:40:37.822Z,80.40
2018-05-13T15:43:03.850Z,80.20
2018-05-13T15:45:30.367Z,80.90
2018-05-13T15:47:57.067Z,80.70
2018-05-13T15:50:23.026Z,80.70
2018-05-13T15:52:49.702Z,82.30
2018-05-13T15:55:15.694Z,81.50
2018-05-13T15:57:42.226Z,82.70
2018-05-13T16:00:08.142Z,82.50
2018-05-13T16:02:34.046Z,83.00
2018-05-13T16:04:59.955Z,84.40
2018-05-13T16:07:25.848Z,83.30
2018-05-13T16:09:51.803Z,83.50
2018-05-13T16:12:17.806Z,82.40
2018-05-13T16:14:43.622Z,82.50
2018-05-13T16:17:09.527Z,82.10
2018-05-13T16:19:35.459Z,82.70
2018-05-13T16:22:01.356Z,82.60
2018-05-13T16:24:28.051Z,82.50
2018-05-13T16:26:53.956Z,82.50
2018-05-13T16:29:19.863Z,82.80
2018-05-13T16:31:45.771Z,83.40
2018-05-13T16:34:11.678Z,83.10
2018-05-13T16:36:37.599Z,83.20
2018-05-13T16:39:03.485Z,83.10
2018-05-13T16:41:29.418Z,82.60
2018-05-13T16:43:55.292Z,82.50
2018-05-13T16:46:21.283Z,82.90
2018-05-13T16:48:47.150Z,82.40
2018-05-13T16:51:13.082Z,83.30
2018-05-13T16:53:38.991Z,83.60
2018-05-13T16:56:04.937Z,84.00
2018-05-13T16:58:30.867Z,83.80
2018-05-13T17:00:56.756Z,83.90
2018-05-13T17:03:22.682Z,84.60
2018-05-13T17:05:48.648Z,84.10
2018-05-13T17:08:14.542Z,84.60
2018-05-13T17:10:40.471Z,84.20
2018-05-13T17:13:06.388Z,83.70
2018-05-13T17:15:32.313Z,84.40
2018-05-13T17:17:58.227Z,85.10
2018-05-13T17:20:24.128Z,84.90
2018-05-13T17:22:50.041Z,84.70
2018-05-13T17:25:15.957Z,85.00
2018-05-13T17:27:41.899Z,84.60
2018-05-13T17:30:07.822Z,84.60
2018-05-13T17:32:33.734Z,84.80
2018-05-13T17:34:59.635Z,84.90
2018-05-13T17:37:25.569Z,85.20
2018-05-13T17:39:52.233Z,85.30
2018-05-13T17:42:18.113Z,85.30
2018-05-13T17:44:44.047Z,85.40
2018-05-13T17:47:09.986Z,85.70
2018-05-13T17:49:35.908Z,85.70
2018-05-13T17:52:01.827Z,85.80
2018-05-13T17:54:27.738Z,85.60
2018-05-13T17:56:53.712Z,84.90
2018-05-13T17:59:19.594Z,84.90
2018-05-13T18:01:45.543Z,85.30
2018-05-13T18:04:12.210Z,85.30
2018-05-13T18:06:38.161Z,85.30
2018-05-13T18:09:04.141Z,85.70
2018-05-13T18:11:30.145Z,85.70
2018-05-13T18:13:55.982Z,86.10
2018-05-13T18:16:21.923Z,86.30
2018-05-13T18:18:47.805Z,86.70
2018-05-13T18:21:14.474Z,87.90
2018-05-13T18:23:40.406Z,87.90
2018-05-13T18:26:06.294Z,88.20
2018-05-13T18:28:32.983Z,88.20
2018-05-13T18:30:58.956Z,88.00
2018-05-13T18:33:24.822Z,87.60
2018-05-13T18:35:50.732Z,87.20
2018-05-13T18:38:16.664Z,87.10
2018-05-13T18:40:42.587Z,86.70
2018-05-13T18:43:08.538Z,86.10
2018-05-13T18:45:34.453Z,85.80
2018-05-13T18:48:00.358Z,86.30
2018-05-13T18:50:26.359Z,86.30
2018-05-13T18:52:52.219Z,86.60
2018-05-13T18:55:18.180Z,86.80
2018-05-13T18:57:44.119Z,87.00
2018-05-13T19:00:10.039Z,87.10
2018-05-13T19:02:35.932Z,87.20
2018-05-13T19:05:02.607Z,87.50
2018-05-13T19:07:28.499Z,88.20
2018-05-13T19:09:54.459Z,88.10
2018-05-13T19:12:20.467Z,88.00
2018-05-13T19:14:46.354Z,88.60
2018-05-13T19:17:12.250Z,89.80
2018-05-13T19:19:38.219Z,90.30
2018-05-13T19:22:04.153Z,90.40
2018-05-13T19:24:30.059Z,90.60
2018-05-13T19:26:55.967Z,90.40
2018-05-13T19:29:21.903Z,90.80
2018-05-13T19:31:47.818Z,90.80
2018-05-13T19:34:13.743Z,91.50
2018-05-13T19:36:39.651Z,91.60
2018-05-13T19:39:05.559Z,91.40
2018-05-13T19:41:32.217Z,91.80
2018-05-13T19:43:58.127Z,91.80
2018-05-13T19:46:24.061Z,92.10
2018-05-13T19:48:49.975Z,92.40
2018-05-13T19:51:15.919Z,92.30
2018-05-13T19:53:41.850Z,92.40
2018-05-13T19:56:07.786Z,92.40
2018-05-13T19:58:33.761Z,92.40
2018-05-13T20:01:00.537Z,92.50
2018-05-13T20:03:26.550Z,92.50
2018-05-13T20:05:52.834Z,92.40
2018-05-13T20:08:19.644Z,92.20
2018-05-13T20:10:45.872Z,92.30
2018-05-13T20:13:12.054Z,92.40
2018-05-13T20:15:39.079Z,92.60
2018-05-13T20:18:05.210Z,92.70
2018-05-13T20:20:32.091Z,92.80
2018-05-13T20:22:58.363Z,92.90
2018-05-13T20:25:25.272Z,93.40
2018-05-13T20:27:52.103Z,93.40
2018-05-13T20:30:18.301Z,93.60
2018-05-13T20:32:46.530Z,93.90
2018-05-13T20:35:13.328Z,93.90
2018-05-13T20:37:41.610Z,94.20
2018-05-13T20:40:08.411Z,94.30
2018-05-13T20:42:35.435Z,94.30
2018-05-13T20:45:02.504Z,94.50
2018-05-13T20:47:28.737Z,94.50
2018-05-13T20:49:55.567Z,94.60
2018-05-13T20:52:22.675Z,94.50
2018-05-13T20:54:49.513Z,94.40
2018-05-13T20:57:15.542Z,94.30
2018-05-13T20:59:43.073Z,93.90
2018-05-13T21:02:09.368Z,93.70
2018-05-13T21:04:35.322Z,93.60
2018-05-13T21:07:01.345Z,93.00
2018-05-13T21:09:27.333Z,93.20
2018-05-13T21:11:53.272Z,92.70
2018-05-13T21:14:19.649Z,92.60
2018-05-13T21:16:45.812Z,92.50
2018-05-13T21:19:12.119Z,92.60
2018-05-13T21:21:38.352Z,92.80
2018-05-13T21:24:04.265Z,92.70
2018-05-13T21:26:30.256Z,92.90
2018-05-13T21:28:56.614Z,92.90
2018-05-13T21:31:22.930Z,93.10
2018-05-13T21:33:48.857Z,93.30
2018-05-13T21:36:14.791Z,93.50
2018-05-13T21:38:40.796Z,93.50
2018-05-13T21:41:06.989Z,93.60
2018-05-13T21:43:34.627Z,93.60
2018-05-13T21:46:00.661Z,93.60
2018-05-13T21:48:26.631Z,93.70
2018-05-13T21:50:52.631Z,93.40
2018-05-13T21:53:19.306Z,93.60
2018-05-13T21:55:45.436Z,93.60
2018-05-13T21:58:11.393Z,93.50
2018-05-13T22:00:37.405Z,93.50
2018-05-13T22:03:03.452Z,93.60
2018-05-13T22:05:29.743Z,93.20
2018-05-13T22:07:55.999Z,93.40
2018-05-13T22:10:21.955Z,93.30
2018-05-13T22:12:47.937Z,93.20
2018-05-13T22:15:13.982Z,93.20
2018-05-13T22:17:41.294Z,93.20
2018-05-13T22:20:08.803Z,93.20
2018-05-13T22:22:35.745Z,93.20
2018-05-13T22:25:02.063Z,93.50
2018-05-13T22:27:28.955Z,93.50
2018-05-13T22:29:55.728Z,93.50
2018-05-13T22:32:21.789Z,93.50
2018-05-13T22:34:47.811Z,94.10
2018-05-13T22:37:13.955Z,93.60
2018-05-13T22:39:40.725Z,93.60
2018-05-13T22:42:07.255Z,93.90
2018-05-13T22:44:33.309Z,94.00
2018-05-13T22:47:00.043Z,94.00
2018-05-13T22:49:26.332Z,94.00
2018-05-13T22:51:52.536Z,93.80
2018-05-13T22:54:19.411Z,93.70
2018-05-13T22:56:46.165Z,93.90
2018-05-13T22:59:12.898Z,94.10
2018-05-13T23:01:38.965Z,94.60
2018-05-13T23:04:05.802Z,94.90
2018-05-13T23:06:32.742Z,94.80
2018-05-13T23:08:59.624Z,95.30
2018-05-13T23:11:25.896Z,95.30
2018-05-13T23:13:52.712Z,95.20
2018-05-13T23:16:18.659Z,95.40
2018-05-13T23:18:44.803Z,95.50
2018-05-13T23:21:11.106Z,95.60
2018-05-13T23:23:37.107Z,95.50
2018-05-13T23:26:04.868Z,95.50
2018-05-13T23:28:31.526Z,95.80
2018-05-13T23:30:57.826Z,95.60
2018-05-13T23:33:25.084Z,95.50
2018-05-13T23:35:51.321Z,95.40
2018-05-13T23:38:17.297Z,95.20
2018-05-13T23:40:43.351Z,95.10
2018-05-13T23:43:10.875Z,95.20
2018-05-13T23:45:38.275Z,95.40
2018-05-13T23:48:04.557Z,95.20
2018-05-13T23:50:31.083Z,95.20
2018-05-13T23:52:58.803Z,95.10
2018-05-13T23:55:26.007Z,94.90
2018-05-13T23:57:52.999Z,94.40
